Time;durP1;ratioP1;P1;durP2;ratioP2;P2;SDS_P1;SDS_P2;PMS_P1;PMS_P2;Temp;Humidity;BMP_temperature;BMP_pressure;BME280_temperature;BME280_humidity;BME280_pressure;Samples;Min_cycle;Max_cycle;Signal;HPM_P1;HPM_P2
2022/11/28 00:00:20;;;;;;;11.17;7.33;;;5.70;99.90;;;;;;5025566;28;20196;-42
2022/11/28 00:02:47;;;;;;;10.50;7.67;;;5.70;99.90;;;;;;5005982;28;23366;-43
2022/11/28 00:05:14;;;;;;;10.10;7.40;;;5.70;99.90;;;;;;5021306;28;20197;-44
2022/11/28 00:07:41;;;;;;;14.47;7.60;;;5.70;99.90;;;;;;5020899;28;20220;-43
2022/11/28 00:10:09;;;;;;;10.73;7.37;;;5.70;99.90;;;;;;5008313;28;20212;-43
2022/11/28 00:12:37;;;;;;;8.50;7.23;;;5.80;99.90;;;;;;5021543;28;20664;-45
2022/11/28 00:15:05;;;;;;;12.03;7.20;;;5.80;99.90;;;;;;5024886;28;20204;-46
2022/11/28 00:17:33;;;;;;;11.23;7.20;;;5.80;99.90;;;;;;5009629;28;20215;-46
2022/11/28 00:20:00;;;;;;;11.37;7.17;;;5.80;99.90;;;;;;5016572;28;20212;-42
2022/11/28 00:22:28;;;;;;;10.40;6.97;;;5.70;99.90;;;;;;5023682;28;20199;-44
2022/11/28 00:24:54;;;;;;;11.10;7.47;;;5.80;99.90;;;;;;5005229;28;20212;-44
2022/11/28 00:27:21;;;;;;;13.67;7.13;;;5.80;99.90;;;;;;5024699;28;20696;-43
2022/11/28 00:29:48;;;;;;;8.03;7.23;;;5.70;99.90;;;;;;5020014;28;20203;-42
2022/11/28 00:32:15;;;;;;;9.17;6.97;;;5.80;99.90;;;;;;5013337;28;20211;-43
2022/11/28 00:34:44;;;;;;;9.20;6.63;;;5.80;99.90;;;;;;5014294;28;20196;-43
2022/11/28 00:37:10;;;;;;;10.47;7.13;;;5.80;99.90;;;;;;5024498;28;20604;-42
2022/11/28 00:39:37;;;;;;;9.33;6.97;;;5.70;99.90;;;;;;5007490;28;20207;-42
2022/11/28 00:42:05;;;;;;;9.00;6.63;;;5.80;99.90;;;;;;5022433;28;20696;-44
2022/11/28 00:44:31;;;;;;;12.27;6.80;;;5.80;99.90;;;;;;5022631;28;20668;-43
2022/11/28 00:46:58;;;;;;;8.00;6.63;;;5.80;99.90;;;;;;5012815;28;20235;-41
2022/11/28 00:49:25;;;;;;;9.87;6.93;;;5.80;99.90;;;;;;5020106;28;20295;-45
2022/11/28 00:51:54;;;;;;;13.53;7.67;;;5.80;99.90;;;;;;5014219;28;20216;-41
2022/11/28 00:54:21;;;;;;;8.23;6.63;;;5.80;99.90;;;;;;5024644;28;20210;-43
2022/11/28 00:56:47;;;;;;;9.63;6.63;;;5.70;99.90;;;;;;5002846;28;20919;-47
2022/11/28 00:59:14;;;;;;;11.47;7.13;;;5.80;99.90;;;;;;5023328;28;20203;-42
2022/11/28 01:01:43;;;;;;;8.50;6.37;;;5.80;99.90;;;;;;5019730;28;20782;-41
2022/11/28 01:04:12;;;;;;;9.47;6.80;;;5.80;99.90;;;;;;5013603;28;20250;-43
2022/11/28 01:06:41;;;;;;;10.27;6.40;;;5.80;99.90;;;;;;5013747;28;20887;-44
2022/11/28 01:09:12;;;;;;;8.17;5.90;;;5.80;99.90;;;;;;5024150;28;20211;-42
2022/11/28 01:11:40;;;;;;;9.50;6.37;;;5.80;99.90;;;;;;5004804;28;20200;-45
2022/11/28 01:14:09;;;;;;;9.23;6.30;;;5.80;99.90;;;;;;5021422;28;20566;-41
2022/11/28 01:16:36;;;;;;;10.33;6.23;;;5.70;99.90;;;;;;5020721;28;20696;-42
2022/11/28 01:19:02;;;;;;;8.73;5.93;;;5.70;99.90;;;;;;5015480;28;20293;-41
2022/11/28 01:21:29;;;;;;;10.03;6.30;;;5.70;99.90;;;;;;5013770;28;20250;-46
2022/11/28 01:23:56;;;;;;;8.23;5.93;;;5.70;99.90;;;;;;5021714;28;20192;-42
2022/11/28 01:26:26;;;;;;;10.00;6.60;;;5.70;99.90;;;;;;5023381;28;20230;-45
2022/11/28 01:28:53;;;;;;;9.67;5.73;;;5.70;99.90;;;;;;5004187;28;20212;-41
2022/11/28 01:31:23;;;;;;;9.90;6.30;;;5.70;99.90;;;;;;5023678;28;20196;-41
2022/11/28 01:33:50;;;;;;;10.03;6.07;;;5.70;99.90;;;;;;5011224;28;20348;-43
2022/11/28 01:36:18;;;;;;;9.77;6.30;;;5.70;99.90;;;;;;5021509;28;20580;-42
2022/11/28 01:38:45;;;;;;;8.60;6.00;;;5.70;99.90;;;;;;5013393;28;20227;-43
2022/11/28 01:41:13;;;;;;;11.50;6.33;;;5.70;99.90;;;;;;5023493;28;20210;-45
2022/11/28 01:44:01;;;;;;;12.33;7.20;;;5.70;99.90;;;;;;5003579;28;20656;-44
2022/11/28 01:46:28;;;;;;;11.93;5.73;;;5.70;99.90;;;;;;5017961;28;20215;-43
2022/11/28 01:48:59;;;;;;;7.47;5.50;;;5.70;99.90;;;;;;5021315;28;20238;-43
2022/11/28 01:51:26;;;;;;;9.70;6.17;;;5.70;99.90;;;;;;5008071;28;20228;-44
2022/11/28 01:53:54;;;;;;;11.53;6.60;;;5.70;99.90;;;;;;5015190;28;20208;-43
2022/11/28 01:56:25;;;;;;;10.07;6.03;;;5.70;99.90;;;;;;5023363;28;20255;-46
2022/11/28 01:58:56;;;;;;;8.47;6.00;;;5.70;99.90;;;;;;5003650;28;20328;-42
2022/11/28 02:01:25;;;;;;;11.73;6.63;;;5.70;99.90;;;;;;5022532;28;20199;-44
2022/11/28 02:03:53;;;;;;;12.07;6.17;;;5.70;99.90;;;;;;5020086;28;20211;-43
2022/11/28 02:06:24;;;;;;;8.17;5.80;;;5.70;99.90;;;;;;5021073;28;20220;-42
2022/11/28 02:08:52;;;;;;;7.97;5.47;;;5.70;99.90;;;;;;5020443;28;20282;-43
2022/11/28 02:11:40;;;;;;;8.43;5.97;;;5.70;99.90;;;;;;5030047;28;20282;-42
2022/11/28 02:14:15;;;;;;;14.27;6.23;;;5.70;99.90;;;;;;5012544;28;20286;-44
2022/11/28 02:16:56;;;;;;;8.90;6.23;;;5.70;99.90;;;;;;5025475;28;20222;-47
2022/11/28 02:19:59;;;;;;;8.40;6.33;;;5.60;99.90;;;;;;5029556;28;20227;-48
2022/11/28 02:22:31;;;;;;;8.47;7.17;;;5.60;99.90;;;;;;5020430;28;20203;-49
2022/11/28 02:25:28;;;;;;;7.37;6.17;;;5.60;99.90;;;;;;5021001;28;20568;-45
2022/11/28 02:28:14;;;;;;;9.60;5.87;;;5.60;99.90;;;;;;5027686;28;20200;-46
2022/11/28 02:30:54;;;;;;;7.83;5.73;;;5.50;99.90;;;;;;5008464;28;20215;-47
2022/11/28 02:33:26;;;;;;;11.60;6.47;;;5.60;99.90;;;;;;5029256;28;20204;-47
2022/11/28 02:36:02;;;;;;;11.43;6.77;;;5.50;99.90;;;;;;5026801;28;20915;-48
2022/11/28 02:38:42;;;;;;;7.90;6.10;;;5.50;99.90;;;;;;5012115;28;20678;-48
2022/11/28 02:41:19;;;;;;;10.93;6.20;;;5.50;99.90;;;;;;5029939;28;20206;-46
2022/11/28 02:43:54;;;;;;;9.70;5.50;;;5.50;99.90;;;;;;5025617;28;20196;-45
2022/11/28 02:46:27;;;;;;;9.90;5.97;;;5.50;99.90;;;;;;5012497;28;20257;-50
2022/11/28 02:48:58;;;;;;;8.20;5.33;;;5.50;99.90;;;;;;5027497;28;20903;-47
2022/11/28 02:51:31;;;;;;;10.57;5.67;;;5.50;99.90;;;;;;5028520;28;20679;-50
2022/11/28 02:53:59;;;;;;;6.57;5.63;;;5.50;99.90;;;;;;5007379;28;20719;-46
2022/11/28 02:56:27;;;;;;;6.97;5.70;;;5.50;99.90;;;;;;5028361;28;20637;-51
2022/11/28 02:58:54;;;;;;;9.87;5.70;;;5.50;99.90;;;;;;5026987;28;20224;-47
2022/11/28 03:01:27;;;;;;;8.13;5.57;;;5.60;99.90;;;;;;5012226;28;20211;-50
2022/11/28 03:04:12;;;;;;;9.93;5.73;;;5.60;99.90;;;;;;5026335;28;20203;-46
2022/11/28 03:06:48;;;;;;;7.33;5.10;;;5.60;99.90;;;;;;5022312;28;20231;-50
2022/11/28 03:09:31;;;;;;;7.60;5.43;;;5.60;99.90;;;;;;5021316;28;20261;-49
2022/11/28 03:12:10;;;;;;;12.87;5.03;;;5.60;99.90;;;;;;5027362;28;20282;-45
2022/11/28 03:14:48;;;;;;;6.67;5.40;;;5.60;99.90;;;;;;5026109;28;20833;-48
2022/11/28 03:17:21;;;;;;;8.07;5.60;;;5.60;99.90;;;;;;5009022;28;20231;-46
2022/11/28 03:19:59;;;;;;;8.17;5.47;;;5.60;99.90;;;;;;5022341;28;20215;-48
2022/11/28 03:22:30;;;;;;;11.37;5.47;;;5.60;99.90;;;;;;5024803;28;20200;-50
2022/11/28 03:25:06;;;;;;;8.07;5.77;;;5.60;99.90;;;;;;5017008;28;20196;-45
2022/11/28 03:27:37;;;;;;;8.63;6.00;;;5.60;99.90;;;;;;5023742;28;20227;-52
2022/11/28 03:30:13;;;;;;;8.47;5.57;;;5.60;99.90;;;;;;5025758;28;20204;-46
2022/11/28 03:32:41;;;;;;;7.83;5.23;;;5.60;99.90;;;;;;5001380;28;20208;-50
2022/11/28 03:35:14;;;;;;;5.57;5.03;;;5.60;99.90;;;;;;5025521;28;20233;-49
2022/11/28 03:37:47;;;;;;;6.23;5.33;;;5.60;99.90;;;;;;5018941;28;20212;-47
2022/11/28 03:40:21;;;;;;;8.13;5.40;;;5.60;99.90;;;;;;5018415;28;20208;-51
2022/11/28 03:42:52;;;;;;;7.10;5.13;;;5.60;99.90;;;;;;5021801;28;20275;-49
2022/11/28 03:45:22;;;;;;;5.70;5.10;;;5.60;99.90;;;;;;5026001;28;20203;-47
2022/11/28 03:47:55;;;;;;;10.77;5.50;;;5.60;99.90;;;;;;5008441;28;20230;-46
2022/11/28 03:50:29;;;;;;;8.30;5.37;;;5.60;99.90;;;;;;5025376;28;20653;-53
2022/11/28 03:53:01;;;;;;;10.30;5.03;;;5.60;99.90;;;;;;5023221;28;20199;-47
2022/11/28 03:55:32;;;;;;;7.20;5.00;;;5.60;99.90;;;;;;5022300;28;20567;-51
2022/11/28 03:58:05;;;;;;;7.67;5.10;;;5.60;99.90;;;;;;5014734;28;20207;-48
2022/11/28 04:00:36;;;;;;;7.20;5.13;;;5.60;99.90;;;;;;5026183;28;20283;-49
2022/11/28 04:03:11;;;;;;;7.13;5.27;;;5.60;99.90;;;;;;5020189;28;20200;-48
2022/11/28 04:05:46;;;;;;;8.93;5.27;;;5.60;99.90;;;;;;5018756;28;20203;-49
2022/11/28 04:08:17;;;;;;;7.20;5.07;;;5.70;99.90;;;;;;5025133;28;20199;-49
2022/11/28 04:10:49;;;;;;;6.10;5.03;;;5.60;99.90;;;;;;5013861;28;20207;-48
2022/11/28 04:13:23;;;;;;;7.70;5.53;;;5.70;99.90;;;;;;5024921;28;20200;-46
2022/11/28 04:15:57;;;;;;;7.87;5.17;;;5.60;99.90;;;;;;5022120;28;20207;-46
2022/11/28 04:18:27;;;;;;;7.37;5.50;;;5.70;99.90;;;;;;5007705;28;20228;-51
2022/11/28 04:21:00;;;;;;;7.27;4.83;;;5.60;99.90;;;;;;5022532;28;20195;-47
2022/11/28 04:23:29;;;;;;;5.73;4.93;;;5.60;99.90;;;;;;5023472;28;20192;-50
2022/11/28 04:26:01;;;;;;;6.87;5.17;;;5.60;99.90;;;;;;5008832;28;20321;-47
2022/11/28 04:28:33;;;;;;;10.77;6.40;;;5.60;99.90;;;;;;5017512;28;20568;-49
2022/11/28 04:31:04;;;;;;;7.63;4.67;;;5.60;99.90;;;;;;5023776;28;20188;-46
2022/11/28 04:33:34;;;;;;;8.23;5.27;;;5.60;99.90;;;;;;5005977;28;20215;-49
2022/11/28 04:36:06;;;;;;;7.33;5.07;;;5.60;99.90;;;;;;5023582;28;20215;-48
2022/11/28 04:38:34;;;;;;;8.40;5.90;;;5.60;99.90;;;;;;5022458;28;20673;-51
2022/11/28 04:41:08;;;;;;;7.37;5.43;;;5.50;99.90;;;;;;5024047;28;20211;-49
2022/11/28 04:43:39;;;;;;;7.27;5.43;;;5.50;99.90;;;;;;5008927;28;20212;-51
2022/11/28 04:46:11;;;;;;;11.47;6.00;;;5.50;99.90;;;;;;5024651;28;20224;-47
2022/11/28 04:48:38;;;;;;;7.70;5.37;;;5.50;99.90;;;;;;5006596;28;20196;-51
2022/11/28 04:51:16;;;;;;;8.73;5.43;;;5.50;99.90;;;;;;5023292;28;20204;-51
2022/11/28 04:53:49;;;;;;;7.83;5.63;;;5.50;99.90;;;;;;5020134;28;20208;-46
2022/11/28 04:56:20;;;;;;;8.73;5.70;;;5.50;99.90;;;;;;5018505;28;20235;-46
2022/11/28 04:58:49;;;;;;;8.60;5.27;;;5.50;99.90;;;;;;5011554;28;20914;-49
2022/11/28 05:01:21;;;;;;;6.13;5.53;;;5.50;99.90;;;;;;5024335;28;20292;-48
2022/11/28 05:03:49;;;;;;;7.37;5.77;;;5.50;99.90;;;;;;5020382;28;20887;-48
2022/11/28 05:06:24;;;;;;;8.20;5.80;;;5.50;99.90;;;;;;5006066;28;20216;-50
2022/11/28 05:08:51;;;;;;;6.70;5.47;;;5.40;99.90;;;;;;5021205;28;20207;-50
2022/11/28 05:11:19;;;;;;;6.43;5.27;;;5.40;99.90;;;;;;5023871;28;20200;-46
2022/11/28 05:13:45;;;;;;;10.30;5.50;;;5.40;99.90;;;;;;5000268;28;20710;-46
2022/11/28 05:16:14;;;;;;;8.43;6.07;;;5.40;99.90;;;;;;5021609;28;20224;-52
2022/11/28 05:18:42;;;;;;;6.70;5.70;;;5.40;99.90;;;;;;5018734;28;20231;-51
2022/11/28 05:21:11;;;;;;;8.43;6.37;;;5.40;99.90;;;;;;5000145;28;20200;-48
2022/11/28 05:23:40;;;;;;;6.10;5.47;;;5.40;99.90;;;;;;5022988;28;20200;-50
2022/11/28 05:26:08;;;;;;;7.93;5.80;;;5.40;99.90;;;;;;5015386;28;20227;-46
2022/11/28 05:28:35;;;;;;;10.13;5.40;;;5.40;99.90;;;;;;5013008;28;20200;-51
2022/11/28 05:31:02;;;;;;;7.20;6.07;;;5.40;99.90;;;;;;5012833;28;20196;-46
2022/11/28 05:33:30;;;;;;;9.63;6.57;;;5.40;99.90;;;;;;5023021;28;20238;-46
2022/11/28 05:35:57;;;;;;;10.33;6.37;;;5.40;99.90;;;;;;5003394;28;20227;-48
2022/11/28 05:38:24;;;;;;;8.57;5.57;;;5.40;99.90;;;;;;5023245;28;20200;-46
2022/11/28 05:40:52;;;;;;;10.67;6.43;;;5.40;99.90;;;;;;5008813;28;20204;-51
2022/11/28 05:43:19;;;;;;;10.90;5.80;;;5.40;99.90;;;;;;5020594;28;20195;-47
2022/11/28 05:45:46;;;;;;;8.00;6.43;;;5.40;99.90;;;;;;5010405;28;20211;-50
2022/11/28 05:48:13;;;;;;;8.03;5.50;;;5.40;99.90;;;;;;5015724;28;20212;-46
2022/11/28 05:50:41;;;;;;;9.83;6.40;;;5.40;99.90;;;;;;5009908;28;20192;-50
2022/11/28 05:53:08;;;;;;;8.57;6.27;;;5.40;99.90;;;;;;4997699;28;20199;-53
2022/11/28 05:55:35;;;;;;;7.33;5.83;;;5.40;99.90;;;;;;5009744;28;20212;-47
2022/11/28 05:58:03;;;;;;;8.83;5.60;;;5.30;99.90;;;;;;4995234;28;20195;-50
2022/11/28 06:00:30;;;;;;;9.73;5.87;;;5.30;99.90;;;;;;5008004;28;20220;-48
2022/11/28 06:02:57;;;;;;;9.27;6.00;;;5.30;99.90;;;;;;5003862;28;20691;-46
2022/11/28 06:05:24;;;;;;;7.87;5.60;;;5.30;99.90;;;;;;5016230;28;20219;-50
2022/11/28 06:07:52;;;;;;;9.50;5.80;;;5.30;99.90;;;;;;5001131;28;20251;-52
2022/11/28 06:10:21;;;;;;;8.37;6.10;;;5.30;99.90;;;;;;5017718;28;20192;-50
2022/11/28 06:12:48;;;;;;;9.87;6.47;;;5.30;99.90;;;;;;5007124;28;20821;-51
2022/11/28 06:15:16;;;;;;;7.17;6.30;;;5.30;99.90;;;;;;5012876;28;20200;-46
2022/11/28 06:17:43;;;;;;;12.70;6.80;;;5.30;99.90;;;;;;5010973;28;20232;-51
2022/11/28 06:20:10;;;;;;;9.73;6.50;;;5.30;99.90;;;;;;5014154;28;21003;-47
2022/11/28 06:22:36;;;;;;;8.30;6.13;;;5.30;99.90;;;;;;5005419;28;20208;-52
2022/11/28 06:25:03;;;;;;;8.50;6.33;;;5.30;99.90;;;;;;5018391;28;20195;-47
2022/11/28 06:27:30;;;;;;;7.60;6.37;;;5.30;99.90;;;;;;5016814;28;20754;-50
2022/11/28 06:29:57;;;;;;;10.03;6.37;;;5.30;99.90;;;;;;5015203;28;20265;-48
2022/11/28 06:32:25;;;;;;;10.37;6.80;;;5.30;99.90;;;;;;5004847;28;20215;-47
2022/11/28 06:34:52;;;;;;;11.07;6.13;;;5.30;99.90;;;;;;5011530;28;20219;-47
2022/11/28 06:37:19;;;;;;;9.23;6.03;;;5.30;99.90;;;;;;5021452;28;20212;-51
2022/11/28 06:39:46;;;;;;;8.57;6.87;;;5.30;99.90;;;;;;5001766;28;20224;-54
2022/11/28 06:42:14;;;;;;;11.90;7.07;;;5.30;99.90;;;;;;5011435;28;20195;-48
2022/11/28 06:44:41;;;;;;;9.23;6.27;;;5.30;99.90;;;;;;5011850;28;20204;-51
2022/11/28 06:47:08;;;;;;;8.83;7.07;;;5.30;99.90;;;;;;4995552;28;20228;-47
2022/11/28 06:49:36;;;;;;;7.87;6.03;;;5.30;99.90;;;;;;5010476;28;20203;-51
2022/11/28 06:52:03;;;;;;;10.77;7.27;;;5.30;99.90;;;;;;5014799;28;22647;-52
2022/11/28 06:54:30;;;;;;;9.40;6.80;;;5.30;99.90;;;;;;5008475;28;20208;-53
2022/11/28 06:56:57;;;;;;;8.13;6.40;;;5.30;99.90;;;;;;5017900;28;20204;-49
2022/11/28 06:59:24;;;;;;;9.10;6.47;;;5.20;99.90;;;;;;5015155;28;20338;-47
2022/11/28 07:01:51;;;;;;;7.63;6.27;;;5.30;99.90;;;;;;5011019;28;20192;-53
2022/11/28 07:04:18;;;;;;;10.20;6.57;;;5.20;99.90;;;;;;5012232;28;20298;-50
2022/11/28 07:06:46;;;;;;;8.83;6.57;;;5.20;99.90;;;;;;5006863;28;20236;-54
2022/11/28 07:09:13;;;;;;;8.90;6.63;;;5.20;99.90;;;;;;5002267;28;20328;-50
2022/11/28 07:11:41;;;;;;;11.50;7.40;;;5.20;99.90;;;;;;5015785;28;20199;-50
2022/11/28 07:14:09;;;;;;;10.33;6.33;;;5.20;99.90;;;;;;5009790;28;21819;-49
2022/11/28 07:16:36;;;;;;;9.40;6.57;;;5.20;99.90;;;;;;5017042;28;20219;-51
2022/11/28 07:19:04;;;;;;;8.63;6.40;;;5.20;99.90;;;;;;5001244;28;20200;-52
2022/11/28 07:21:31;;;;;;;9.40;6.57;;;5.20;99.90;;;;;;5007609;28;20192;-50
2022/11/28 07:24:00;;;;;;;10.37;6.60;;;5.20;99.90;;;;;;5019284;28;20608;-48
2022/11/28 07:26:27;;;;;;;10.00;6.37;;;5.20;99.90;;;;;;4995907;28;20273;-53
2022/11/28 07:28:57;;;;;;;9.23;7.00;;;5.20;99.90;;;;;;5010782;28;20200;-54
2022/11/28 07:31:25;;;;;;;11.60;7.17;;;5.30;99.90;;;;;;5008040;28;20213;-52
2022/11/28 07:33:53;;;;;;;11.83;6.97;;;5.30;99.90;;;;;;5011441;28;20261;-51
2022/11/28 07:36:21;;;;;;;11.13;7.10;;;5.30;99.90;;;;;;4989126;28;20657;-50
2022/11/28 07:38:49;;;;;;;10.57;7.40;;;5.30;99.90;;;;;;5020553;28;20211;-49
2022/11/28 07:41:18;;;;;;;9.40;6.97;;;5.30;99.90;;;;;;4999837;28;20219;-50
2022/11/28 07:43:46;;;;;;;9.43;6.77;;;5.30;99.90;;;;;;5021335;28;20307;-48
2022/11/28 07:46:15;;;;;;;11.60;6.80;;;5.30;99.90;;;;;;5011494;28;20279;-48
2022/11/28 07:48:42;;;;;;;14.73;7.20;;;5.30;99.90;;;;;;4998417;28;20213;-47
2022/11/28 07:51:11;;;;;;;9.43;6.43;;;5.30;99.90;;;;;;4989124;28;20208;-50
2022/11/28 07:53:39;;;;;;;12.00;7.20;;;5.30;99.90;;;;;;5010235;28;20933;-47
2022/11/28 07:56:08;;;;;;;8.53;7.27;;;5.30;99.90;;;;;;5002461;28;20223;-52
2022/11/28 07:58:37;;;;;;;11.13;8.20;;;5.30;99.90;;;;;;5013748;28;20192;-53
2022/11/28 08:01:09;;;;;;;10.13;7.30;;;5.30;99.90;;;;;;5018411;28;20588;-47
2022/11/28 08:03:35;;;;;;;9.93;7.07;;;5.40;99.90;;;;;;5009434;28;20263;-53
2022/11/28 08:06:03;;;;;;;9.30;6.87;;;5.40;99.90;;;;;;5012285;28;20929;-46
2022/11/28 08:08:29;;;;;;;10.30;7.90;;;5.40;99.90;;;;;;5012408;28;20200;-47
2022/11/28 08:10:58;;;;;;;11.50;7.73;;;5.40;99.90;;;;;;5013971;28;20197;-49
2022/11/28 08:13:25;;;;;;;12.07;7.67;;;5.40;99.90;;;;;;4991087;28;20212;-48
2022/11/28 08:15:53;;;;;;;12.17;7.70;;;5.40;99.90;;;;;;5020352;28;20224;-47
2022/11/28 08:18:20;;;;;;;12.27;7.60;;;5.40;99.90;;;;;;5011588;28;20215;-51
2022/11/28 08:20:47;;;;;;;13.97;8.70;;;5.40;99.90;;;;;;5007547;28;20223;-49
2022/11/28 08:23:13;;;;;;;11.50;8.73;;;5.40;99.90;;;;;;4998519;28;20806;-48
2022/11/28 08:25:40;;;;;;;11.30;7.80;;;5.40;99.90;;;;;;5005424;28;20610;-47
2022/11/28 08:28:07;;;;;;;14.23;8.30;;;5.40;99.90;;;;;;4998852;28;20212;-57
2022/11/28 08:30:34;;;;;;;11.13;8.07;;;5.40;99.90;;;;;;5012908;28;20196;-44
2022/11/28 08:33:02;;;;;;;13.63;8.87;;;5.50;99.90;;;;;;5010407;28;20679;-47
2022/11/28 08:35:29;;;;;;;11.23;8.27;;;5.40;99.90;;;;;;5006017;28;20214;-44
2022/11/28 08:37:55;;;;;;;13.63;9.10;;;5.50;99.90;;;;;;5009270;28;20220;-47
2022/11/28 08:40:22;;;;;;;14.37;8.67;;;5.50;99.90;;;;;;5016455;28;20368;-48
2022/11/28 08:42:49;;;;;;;12.33;8.47;;;5.50;99.90;;;;;;5010597;28;20212;-47
2022/11/28 08:45:15;;;;;;;11.87;8.40;;;5.50;99.90;;;;;;5000415;28;20432;-49
2022/11/28 08:47:42;;;;;;;14.80;8.50;;;5.50;99.90;;;;;;5010925;28;20888;-45
2022/11/28 08:50:10;;;;;;;14.00;7.97;;;5.50;99.90;;;;;;5008990;28;20284;-52
2022/11/28 08:52:37;;;;;;;12.33;8.30;;;5.50;99.90;;;;;;5015339;28;20203;-47
2022/11/28 08:55:05;;;;;;;14.87;9.00;;;5.60;99.90;;;;;;5001533;28;20200;-47
2022/11/28 08:57:32;;;;;;;13.80;8.23;;;5.60;99.90;;;;;;5010692;28;20224;-45
2022/11/28 08:59:58;;;;;;;13.83;9.13;;;5.60;99.90;;;;;;5001233;28;20215;-52
2022/11/28 09:02:25;;;;;;;12.27;7.97;;;5.60;99.90;;;;;;5005596;28;20227;-45
2022/11/28 09:04:52;;;;;;;15.93;9.27;;;5.60;99.90;;;;;;5011405;28;20770;-48
2022/11/28 09:07:20;;;;;;;11.47;8.33;;;5.70;99.90;;;;;;5004694;28;20937;-49
2022/11/28 09:09:47;;;;;;;11.90;8.50;;;5.60;99.90;;;;;;5007362;28;20680;-46
2022/11/28 09:12:14;;;;;;;11.73;8.43;;;5.70;99.90;;;;;;5010397;28;20281;-47
2022/11/28 09:14:41;;;;;;;12.57;8.70;;;5.60;99.90;;;;;;5001602;28;20228;-54
2022/11/28 09:17:08;;;;;;;14.83;8.83;;;5.70;99.90;;;;;;5002841;28;20250;-55
2022/11/28 09:19:34;;;;;;;11.23;8.60;;;5.70;99.90;;;;;;5014593;28;20204;-51
2022/11/28 09:22:02;;;;;;;11.50;8.63;;;5.70;99.90;;;;;;5008606;28;20196;-55
2022/11/28 09:24:30;;;;;;;15.07;8.50;;;5.70;99.90;;;;;;5005919;28;20205;-47
2022/11/28 09:26:57;;;;;;;15.13;8.67;;;5.70;99.90;;;;;;5012471;28;20223;-55
2022/11/28 09:29:24;;;;;;;13.93;8.07;;;5.70;99.90;;;;;;4995655;28;21269;-47
2022/11/28 09:31:50;;;;;;;13.63;8.80;;;5.80;99.90;;;;;;5013616;28;20203;-49
2022/11/28 09:34:17;;;;;;;9.73;8.17;;;5.80;99.90;;;;;;5003839;28;20204;-49
2022/11/28 09:36:44;;;;;;;14.33;8.67;;;5.80;99.90;;;;;;5011382;28;20281;-58
2022/11/28 09:39:11;;;;;;;12.80;8.67;;;5.80;99.90;;;;;;4996223;28;20222;-56
2022/11/28 09:41:56;;;;;;;14.30;8.63;;;5.80;99.90;;;;;;5014167;28;20295;-59
2022/11/28 09:44:26;;;;;;;13.27;8.57;;;5.80;99.90;;;;;;4996312;28;20433;-59
2022/11/28 09:46:56;;;;;;;18.07;10.10;;;5.80;99.90;;;;;;5013202;28;20224;-56
2022/11/28 09:49:33;;;;;;;14.33;9.97;;;5.80;99.90;;;;;;5006970;28;20220;-59
2022/11/28 09:52:06;;;;;;;11.77;8.13;;;5.90;99.90;;;;;;5008310;28;20217;-59
2022/11/28 09:54:41;;;;;;;13.00;8.30;;;5.90;99.90;;;;;;5008357;28;20200;-59
2022/11/28 09:57:16;;;;;;;13.27;7.97;;;5.90;99.90;;;;;;5003991;28;20253;-58
2022/11/28 09:59:43;;;;;;;16.10;9.00;;;5.90;99.90;;;;;;5014923;28;20195;-58
2022/11/28 10:02:23;;;;;;;12.47;8.00;;;5.90;99.90;;;;;;4986613;28;20212;-59
2022/11/28 10:05:01;;;;;;;11.63;7.97;;;5.90;99.90;;;;;;5004782;28;20667;-58
2022/11/28 10:07:37;;;;;;;16.23;8.60;;;5.90;99.90;;;;;;5006956;28;20778;-56
2022/11/28 10:10:20;;;;;;;14.57;7.87;;;6.00;99.90;;;;;;5002147;28;20196;-58
2022/11/28 10:12:57;;;;;;;11.17;7.90;;;6.00;99.90;;;;;;5002970;28;20647;-59
2022/11/28 10:15:44;;;;;;;13.20;8.73;;;6.00;99.90;;;;;;5013627;28;20203;-57
2022/11/28 10:18:23;;;;;;;10.70;8.13;;;6.00;99.90;;;;;;4983221;28;20952;-59
2022/11/28 10:20:56;;;;;;;10.00;7.53;;;6.00;99.90;;;;;;5014179;28;20314;-57
2022/11/28 10:23:28;;;;;;;12.20;8.00;;;6.00;99.90;;;;;;5008543;28;20211;-59
2022/11/28 10:26:00;;;;;;;11.63;7.50;;;6.10;99.90;;;;;;5001367;28;20452;-58
2022/11/28 10:28:31;;;;;;;10.63;7.40;;;6.10;99.90;;;;;;5013878;28;20673;-58
2022/11/28 10:31:05;;;;;;;11.60;7.90;;;6.10;99.90;;;;;;5001159;28;20196;-59
2022/11/28 10:33:40;;;;;;;12.63;8.20;;;6.10;99.90;;;;;;5015446;28;20200;-60
2022/11/28 10:36:12;;;;;;;12.70;7.90;;;6.10;99.90;;;;;;5008140;28;20215;-60
2022/11/28 10:38:39;;;;;;;10.33;7.27;;;6.10;99.90;;;;;;5011884;28;20204;-60
2022/11/28 10:41:14;;;;;;;13.73;8.57;;;6.10;99.90;;;;;;5003622;28;23058;-61
2022/11/28 10:43:49;;;;;;;9.97;7.20;;;6.10;99.90;;;;;;5010545;28;20223;-59
2022/11/28 10:46:47;;;;;;;11.47;7.33;;;6.10;99.90;;;;;;5017226;28;20275;-62
2022/11/28 10:49:25;;;;;;;10.60;7.47;;;6.10;99.90;;;;;;4994645;28;20208;-63
2022/11/28 10:52:03;;;;;;;10.43;7.63;;;6.10;99.90;;;;;;5007339;28;20203;-60
2022/11/28 10:54:51;;;;;;;13.63;7.87;;;6.10;99.90;;;;;;5012113;28;20196;-58
2022/11/28 10:57:23;;;;;;;11.00;7.90;;;6.10;99.90;;;;;;5006473;28;20874;-58
2022/11/28 11:00:02;;;;;;;12.77;7.90;;;6.00;99.90;;;;;;5005834;28;20901;-56
2022/11/28 11:02:36;;;;;;;10.93;8.17;;;6.00;99.90;;;;;;5008316;28;20699;-59
2022/11/28 11:05:04;;;;;;;11.07;8.00;;;6.00;99.90;;;;;;5015747;28;20207;-59
2022/11/28 11:07:33;;;;;;;18.33;9.00;;;6.00;99.90;;;;;;5008779;28;20303;-57
2022/11/28 11:10:11;;;;;;;13.27;7.83;;;5.90;99.90;;;;;;5009797;28;21045;-57
2022/11/28 11:12:39;;;;;;;10.07;6.90;;;6.00;99.90;;;;;;5006184;28;20279;-60
2022/11/28 11:15:20;;;;;;;15.87;8.13;;;5.90;99.90;;;;;;5018424;28;20212;-59
2022/11/28 11:17:49;;;;;;;10.50;7.57;;;5.90;99.90;;;;;;4998341;28;20233;-59
2022/11/28 11:20:35;;;;;;;11.60;7.27;;;5.90;99.90;;;;;;5022558;28;20215;-59
2022/11/28 11:23:12;;;;;;;9.47;6.80;;;5.90;99.90;;;;;;5013537;28;20204;-59
2022/11/28 11:25:47;;;;;;;14.27;8.03;;;5.90;99.90;;;;;;5006914;28;20238;-59
2022/11/28 11:28:39;;;;;;;11.87;8.03;;;5.90;99.90;;;;;;5011765;28;20192;-58
2022/11/28 11:31:18;;;;;;;9.40;7.80;;;5.90;99.90;;;;;;5015763;28;20199;-60
2022/11/28 11:33:45;;;;;;;12.80;8.27;;;5.90;99.90;;;;;;4992399;28;20250;-59
2022/11/28 11:36:36;;;;;;;12.60;7.90;;;5.90;99.90;;;;;;5016980;28;20219;-57
2022/11/28 11:39:18;;;;;;;12.40;8.40;;;5.80;99.90;;;;;;4998567;28;20690;-55
2022/11/28 11:41:47;;;;;;;11.87;7.40;;;5.80;99.90;;;;;;5004531;28;20209;-57
2022/11/28 11:44:28;;;;;;;13.43;8.77;;;5.80;99.90;;;;;;5011090;28;20258;-58
2022/11/28 11:46:59;;;;;;;16.43;8.33;;;5.80;99.90;;;;;;5012061;28;20215;-58
2022/11/28 11:49:31;;;;;;;12.00;8.07;;;5.80;99.90;;;;;;5000287;28;20848;-58
2022/11/28 11:52:00;;;;;;;12.40;7.87;;;5.70;99.90;;;;;;5019494;28;20204;-59
2022/11/28 11:54:27;;;;;;;11.53;7.93;;;5.70;99.90;;;;;;5003900;28;20196;-58
2022/11/28 11:56:56;;;;;;;13.43;8.00;;;5.70;99.90;;;;;;5006342;28;20207;-54
2022/11/28 11:59:29;;;;;;;13.17;8.03;;;5.70;99.90;;;;;;5018834;28;20707;-57
2022/11/28 12:02:05;;;;;;;13.67;8.27;;;5.60;99.90;;;;;;5006751;28;20220;-58
2022/11/28 12:04:37;;;;;;;13.53;7.60;;;5.60;99.90;;;;;;5016755;28;20208;-56
2022/11/28 12:07:06;;;;;;;12.00;7.97;;;5.60;99.90;;;;;;5000833;28;20320;-57
2022/11/28 12:09:40;;;;;;;15.83;8.43;;;5.60;99.90;;;;;;5002505;28;20208;-58
2022/11/28 12:12:13;;;;;;;11.50;7.87;;;5.60;99.90;;;;;;5009280;28;20245;-59
2022/11/28 12:14:40;;;;;;;11.87;7.73;;;5.50;99.90;;;;;;5010222;28;20680;-56
2022/11/28 12:17:32;;;;;;;12.57;7.90;;;5.50;99.90;;;;;;5013575;28;20208;-57
2022/11/28 12:20:10;;;;;;;11.83;7.70;;;5.50;99.90;;;;;;4998881;28;20208;-59
2022/11/28 12:22:46;;;;;;;11.67;8.57;;;5.40;99.90;;;;;;5010010;28;20584;-58
2022/11/28 12:25:19;;;;;;;10.80;7.80;;;5.40;99.90;;;;;;5004504;28;20279;-59
2022/11/28 12:27:57;;;;;;;15.80;9.07;;;5.40;99.90;;;;;;5004435;28;20229;-58
2022/11/28 12:30:32;;;;;;;10.97;8.43;;;5.40;99.90;;;;;;5008372;28;20302;-56
2022/11/28 12:33:18;;;;;;;14.80;8.50;;;5.40;99.90;;;;;;5009640;28;20318;-57
2022/11/28 12:35:55;;;;;;;15.33;8.90;;;5.40;99.90;;;;;;4993809;28;20212;-54
2022/11/28 12:38:30;;;;;;;11.70;8.50;;;5.40;99.90;;;;;;5017024;28;20211;-59
2022/11/28 12:41:15;;;;;;;13.23;8.77;;;5.40;99.90;;;;;;5000965;28;20219;-58
2022/11/28 12:43:55;;;;;;;14.20;8.77;;;5.40;99.90;;;;;;5002274;28;20216;-59
2022/11/28 12:46:30;;;;;;;14.13;8.87;;;5.40;99.90;;;;;;5002102;28;20248;-59
2022/11/28 12:49:13;;;;;;;12.77;7.83;;;5.30;99.90;;;;;;5005207;28;20287;-58
2022/11/28 12:51:53;;;;;;;12.37;7.90;;;5.30;99.90;;;;;;5003785;28;20567;-59
2022/11/28 12:54:53;;;;;;;11.57;8.77;;;5.30;99.90;;;;;;5013476;28;20307;-61
2022/11/28 12:57:28;;;;;;;12.93;7.97;;;5.30;99.90;;;;;;5005271;28;21006;-55
2022/11/28 12:59:58;;;;;;;11.50;7.87;;;5.30;99.90;;;;;;5011947;28;20230;-52
2022/11/28 13:02:34;;;;;;;18.43;10.73;;;5.30;99.90;;;;;;5001284;28;20223;-58
2022/11/28 13:05:21;;;;;;;12.70;9.17;;;5.30;99.90;;;;;;5017044;28;20676;-57
2022/11/28 13:08:17;;;;;;;13.50;8.77;;;5.30;99.90;;;;;;4999428;28;20311;-58
2022/11/28 13:10:49;;;;;;;13.13;8.30;;;5.20;99.90;;;;;;5017614;28;20288;-59